America — WDE6076 — position and weather

sailwx.info

Track history (hours):
 
Tides and Currents Weather Stations Pressure Air Temp Water Temp Dewpoint Dewpoint Depression Visibility Wind Speed Wind Dir Waves Ship Positions

America

Owner: ET Yacht, LLC, San Diego, CA. More information available from US FCC via Universal Licensing System and Coast Guard Vessel Documentation Center.

Last reported at 2017-Dec-11 01:29 UTC. Time now 2017-Dec-13 20:40 UTC.
Position N 32°42' W 117°14'.

Length 42 m; draft 3.5 m.

Type: Sailing vessel. MMSI: 367375550.

Date/timePositionNaut miles runAvg speedWind from/ knotsBaromVisibWave heightAir tempDewpointWater temp
2017-Dec-11 01:29N 32°42' W 117°14'3 0.1
2017-Dec-09 22:11N 32°39' W 117°15'1 6.9
2017-Dec-09 22:00N 32°40' W 117°16'3 4.5
2017-Dec-09 21:21N 32°40' W 117°20'2 5.1
2017-Dec-09 21:00N 32°39' W 117°20'5 8.7
2017-Dec-09 20:24N 32°40' W 117°14'3 7.6
2017-Dec-09 19:56N 32°43' W 117°13'  
2017-Dec-04 03:22N 32°42' W 117°20'3 8.9
2017-Dec-04 03:00N 32°44' W 117°23'4 8.9
2017-Dec-04 02:30N 32°47' W 117°28'4 8.1
2017-Dec-04 02:00N 32°50' W 117°31'5 9.2
2017-Dec-04 01:30N 32°52' W 117°36'4 8.9
2017-Dec-04 01:00N 32°55' W 117°40'4 9.0
2017-Dec-04 00:30N 32°58' W 117°44'5 9.3
2017-Dec-04 00:00N 33°01' W 117°49'5 9.4
2017-Dec-03 23:28N 33°04' W 117°53'4 9.3
2017-Dec-03 22:59N 33°07' W 117°57'8 9.5
2017-Dec-03 22:12N 33°11' W 118°05'2 9.4
2017-Dec-03 22:00N 33°12' W 118°06'14 0.5
2017-Dec-02 20:16N 33°21' W 118°19'0 0.0
2017-Dec-02 19:52N 33°21' W 118°19'0 0.0
2017-Dec-02 13:05N 33°21' W 118°19'0 0.0
2017-Dec-02 12:47N 33°21' W 118°19'0 0.0
2017-Dec-02 12:17N 33°21' W 118°19'0 0.0
2017-Dec-02 11:59N 33°21' W 118°19'0 0.0
2017-Dec-02 10:43N 33°21' W 118°19'0 0.0
2017-Dec-02 10:25N 33°21' W 118°19'0 0.0
2017-Dec-02 09:55N 33°21' W 118°19'0 0.0
2017-Dec-02 09:25N 33°21' W 118°19'0 0.0
2017-Dec-02 08:55N 33°21' W 118°19'0 0.0
2017-Dec-02 08:30N 33°21' W 118°19'1 1.6
2017-Dec-02 08:00N 33°21' W 118°19'4 8.7
2017-Dec-02 07:30N 33°24' W 118°14'5 8.9
2017-Dec-02 07:00N 33°26' W 118°10'4 8.9
2017-Dec-02 06:30N 33°28' W 118°05'5 8.9
2017-Dec-02 05:58N 33°31' W 118°00'5 8.5
2017-Dec-02 05:25N 33°34' W 117°56'3 6.1
2017-Dec-02 04:53N 33°36' W 117°53'1 2.9
2017-Dec-02 04:26N 33°37' W 117°55'1 0.7
2017-Dec-02 03:36N 33°37' W 117°55'0 0.0
2017-Dec-02 03:24N 33°37' W 117°55'0 0.0
2017-Dec-02 03:00N 33°37' W 117°55'0 0.2
2017-Dec-02 02:30N 33°37' W 117°55'2 4.6
2017-Dec-02 02:01N 33°36' W 117°53'4 8.7
2017-Dec-02 01:30N 33°32' W 117°50'4 8.5
2017-Dec-02 01:01N 33°28' W 117°48'4 8.5
2017-Dec-02 00:31N 33°24' W 117°45'4 8.5
2017-Dec-02 00:01N 33°21' W 117°43'4 8.7
2017-Dec-01 23:30N 33°17' W 117°40'4 8.8
2017-Dec-01 23:00N 33°13' W 117°38'4 8.5
2017-Dec-01 22:31N 33°09' W 117°35'4 8.4
2017-Dec-01 22:01N 33°06' W 117°33'4 8.4
2017-Dec-01 21:30N 33°02' W 117°31'4 8.5
2017-Dec-01 21:01N 32°58' W 117°28'4 8.5
2017-Dec-01 20:30N 32°54' W 117°26'4 8.2
2017-Dec-01 20:01N 32°51' W 117°23'2 4.8
2017-Dec-01 19:31N 32°49' W 117°22'3 6.0
2017-Dec-01 19:00N 32°46' W 117°21'9 0.9
2017-Dec-01 09:02N 32°43' W 117°10'  
Track history (hours):
 
Tides and Currents Weather Stations Pressure Air Temp Water Temp Dewpoint Dewpoint Depression Visibility Wind Speed Wind Dir Waves Ship Positions

America

Owner: ET Yacht, LLC, San Diego, CA. More information available from US FCC via Universal Licensing System and Coast Guard Vessel Documentation Center.

Last reported at 2017-Dec-11 01:29 UTC. Time now 2017-Dec-13 20:40 UTC.
Position N 32°42' W 117°14'.

Length 42 m; draft 3.5 m.

Type: Sailing vessel. MMSI: 367375550.

Date/timePositionNaut miles runAvg speedWind from/ knotsBaromVisibWave heightAir tempDewpointWater temp
2017-Dec-11 01:29N 32°42' W 117°14'3 0.1
2017-Dec-09 22:11N 32°39' W 117°15'1 6.9
2017-Dec-09 22:00N 32°40' W 117°16'3 4.5
2017-Dec-09 21:21N 32°40' W 117°20'2 5.1
2017-Dec-09 21:00N 32°39' W 117°20'5 8.7
2017-Dec-09 20:24N 32°40' W 117°14'3 7.6
2017-Dec-09 19:56N 32°43' W 117°13'  
2017-Dec-04 03:22N 32°42' W 117°20'3 8.9
2017-Dec-04 03:00N 32°44' W 117°23'4 8.9
2017-Dec-04 02:30N 32°47' W 117°28'4 8.1
2017-Dec-04 02:00N 32°50' W 117°31'5 9.2
2017-Dec-04 01:30N 32°52' W 117°36'4 8.9
2017-Dec-04 01:00N 32°55' W 117°40'4 9.0
2017-Dec-04 00:30N 32°58' W 117°44'5 9.3
2017-Dec-04 00:00N 33°01' W 117°49'5 9.4
2017-Dec-03 23:28N 33°04' W 117°53'4 9.3
2017-Dec-03 22:59N 33°07' W 117°57'8 9.5
2017-Dec-03 22:12N 33°11' W 118°05'2 9.4
2017-Dec-03 22:00N 33°12' W 118°06'14 0.5
2017-Dec-02 20:16N 33°21' W 118°19'0 0.0
2017-Dec-02 19:52N 33°21' W 118°19'0 0.0
2017-Dec-02 13:05N 33°21' W 118°19'0 0.0
2017-Dec-02 12:47N 33°21' W 118°19'0 0.0
2017-Dec-02 12:17N 33°21' W 118°19'0 0.0
2017-Dec-02 11:59N 33°21' W 118°19'0 0.0
2017-Dec-02 10:43N 33°21' W 118°19'0 0.0
2017-Dec-02 10:25N 33°21' W 118°19'0 0.0
2017-Dec-02 09:55N 33°21' W 118°19'0 0.0
2017-Dec-02 09:25N 33°21' W 118°19'0 0.0
2017-Dec-02 08:55N 33°21' W 118°19'0 0.0
2017-Dec-02 08:30N 33°21' W 118°19'1 1.6
2017-Dec-02 08:00N 33°21' W 118°19'4 8.7
2017-Dec-02 07:30N 33°24' W 118°14'5 8.9
2017-Dec-02 07:00N 33°26' W 118°10'4 8.9
2017-Dec-02 06:30N 33°28' W 118°05'5 8.9
2017-Dec-02 05:58N 33°31' W 118°00'5 8.5
2017-Dec-02 05:25N 33°34' W 117°56'3 6.1
2017-Dec-02 04:53N 33°36' W 117°53'1 2.9
2017-Dec-02 04:26N 33°37' W 117°55'1 0.7
2017-Dec-02 03:36N 33°37' W 117°55'0 0.0
2017-Dec-02 03:24N 33°37' W 117°55'0 0.0
2017-Dec-02 03:00N 33°37' W 117°55'0 0.2
2017-Dec-02 02:30N 33°37' W 117°55'2 4.6
2017-Dec-02 02:01N 33°36' W 117°53'4 8.7
2017-Dec-02 01:30N 33°32' W 117°50'4 8.5
2017-Dec-02 01:01N 33°28' W 117°48'4 8.5
2017-Dec-02 00:31N 33°24' W 117°45'4 8.5
2017-Dec-02 00:01N 33°21' W 117°43'4 8.7
2017-Dec-01 23:30N 33°17' W 117°40'4 8.8
2017-Dec-01 23:00N 33°13' W 117°38'4 8.5
2017-Dec-01 22:31N 33°09' W 117°35'4 8.4
2017-Dec-01 22:01N 33°06' W 117°33'4 8.4
2017-Dec-01 21:30N 33°02' W 117°31'4 8.5
2017-Dec-01 21:01N 32°58' W 117°28'4 8.5
2017-Dec-01 20:30N 32°54' W 117°26'4 8.2
2017-Dec-01 20:01N 32°51' W 117°23'2 4.8
2017-Dec-01 19:31N 32°49' W 117°22'3 6.0
2017-Dec-01 19:00N 32°46' W 117°21'9 0.9
2017-Dec-01 09:02N 32°43' W 117°10'  

Dump ship's entire track history